Time;durP1;ratioP1;P1;durP2;ratioP2;P2;SDS_P1;SDS_P2;PMS_P1;PMS_P2;Temp;Humidity;BMP_temperature;BMP_pressure;BME280_temperature;BME280_humidity;BME280_pressure;Samples;Min_cycle;Max_cycle;Signal;HPM_P1;HPM_P2
2022/05/27 03:03:00;;;;;;;19.63;18.47;;;10.50;99.90;;;;;;4981461;28;20208;-82
2022/05/27 03:05:41;;;;;;;22.03;20.87;;;10.60;99.90;;;;;;4982325;28;20187;-82
2022/05/27 03:08:15;;;;;;;19.37;18.27;;;10.60;99.90;;;;;;4962966;28;20195;-83
2022/05/27 03:10:52;;;;;;;15.50;14.37;;;10.60;99.90;;;;;;4979724;28;20299;-82
2022/05/27 03:13:37;;;;;;;20.90;19.70;;;10.70;99.90;;;;;;4963840;28;20280;-82
2022/05/27 03:16:04;;;;;;;8.23;7.73;;;10.90;99.90;;;;;;4972459;28;20181;-82
2022/05/27 03:18:38;;;;;;;13.43;12.40;;;11.00;99.90;;;;;;4974614;28;20252;-82
2022/05/27 03:21:45;;;;;;;18.80;17.73;;;11.00;99.90;;;;;;4975590;28;20212;-82
2022/05/27 03:24:34;;;;;;;17.17;16.17;;;11.10;99.90;;;;;;4984699;28;20192;-79
2022/05/27 03:27:32;;;;;;;21.73;20.33;;;11.10;99.90;;;;;;4989914;28;20212;-79
2022/05/27 03:30:16;;;;;;;18.13;16.97;;;11.10;99.90;;;;;;4981424;28;20240;-80
2022/05/27 03:32:55;;;;;;;18.43;17.40;;;11.20;99.90;;;;;;4999125;28;20191;-79
2022/05/27 03:35:36;;;;;;;18.73;17.60;;;11.20;99.90;;;;;;4961462;28;20700;-74
2022/05/27 03:38:08;;;;;;;16.70;15.90;;;11.40;99.90;;;;;;4954369;28;20260;-75
2022/05/27 03:40:47;;;;;;;6.67;6.23;;;11.60;99.90;;;;;;4954587;28;20221;-74
2022/05/27 03:43:14;;;;;;;22.27;21.00;;;11.70;99.90;;;;;;4937771;29;20186;-75
2022/05/27 03:46:00;;;;;;;21.27;20.23;;;11.80;99.90;;;;;;4972479;28;20243;-74
2022/05/27 03:48:29;;;;;;;15.03;14.17;;;11.90;99.90;;;;;;4973602;28;20194;-74
2022/05/27 03:51:09;;;;;;;9.77;8.97;;;12.00;99.90;;;;;;4956909;28;20197;-74
2022/05/27 03:56:19;;;;;;;6.43;6.03;;;12.00;99.90;;;;;;4974003;28;20243;-75
2022/05/27 03:58:45;;;;;;;6.07;5.57;;;12.00;99.90;;;;;;4956327;28;20184;-74
2022/05/27 04:01:11;;;;;;;5.40;5.13;;;12.10;99.90;;;;;;4972288;28;20586;-74
2022/05/27 04:03:36;;;;;;;6.40;5.90;;;12.20;99.90;;;;;;4956142;28;20180;-74
2022/05/27 04:06:03;;;;;;;5.90;5.47;;;12.20;99.90;;;;;;4956305;28;20196;-74
2022/05/27 04:08:29;;;;;;;19.73;18.60;;;12.30;99.90;;;;;;4955536;28;20266;-74
2022/05/27 04:10:55;;;;;;;30.77;29.17;;;12.40;99.90;;;;;;4956048;28;20304;-75
2022/05/27 04:13:20;;;;;;;28.20;26.70;;;12.40;99.90;;;;;;4973683;28;20198;-74
2022/05/27 04:15:47;;;;;;;14.70;13.90;;;12.40;99.90;;;;;;4956249;28;20303;-73
2022/05/27 04:18:13;;;;;;;7.70;7.03;;;12.30;99.90;;;;;;4973283;28;20276;-75
2022/05/27 04:20:39;;;;;;;7.27;6.57;;;12.30;99.90;;;;;;4973506;28;20214;-74
2022/05/27 04:23:05;;;;;;;7.07;6.67;;;12.30;99.90;;;;;;4955991;28;20185;-75
2022/05/27 04:25:30;;;;;;;13.50;12.60;;;12.40;99.90;;;;;;4956453;28;20223;-74
2022/05/27 04:27:56;;;;;;;44.73;42.43;;;12.50;99.90;;;;;;4974388;28;20185;-75
2022/05/27 04:30:24;;;;;;;64.07;60.80;;;12.60;99.90;;;;;;4956909;28;20251;-76
2022/05/27 04:32:49;;;;;;;66.13;62.43;;;12.70;99.90;;;;;;4972999;28;20195;-73
2022/05/27 04:35:15;;;;;;;73.17;69.40;;;12.70;99.90;;;;;;4965306;28;20610;-72
2022/05/27 04:37:41;;;;;;;68.27;64.77;;;12.80;99.90;;;;;;4969319;28;20188;-73
2022/05/27 04:40:08;;;;;;;63.93;60.60;;;12.90;99.90;;;;;;4972731;28;20247;-74
2022/05/27 04:42:34;;;;;;;67.00;63.57;;;13.00;99.90;;;;;;4954696;28;20220;-74
2022/05/27 04:45:00;;;;;;;66.97;63.43;;;13.00;99.90;;;;;;4972474;28;20197;-73
2022/05/27 04:47:26;;;;;;;71.67;68.00;;;13.10;99.90;;;;;;4962550;28;20256;-76
2022/05/27 04:49:56;;;;;;;70.03;66.13;;;13.20;99.90;;;;;;4956940;28;20661;-77
2022/05/27 04:52:26;;;;;;;69.23;65.53;;;13.30;99.90;;;;;;4956507;28;20293;-77
2022/05/27 04:54:53;;;;;;;104.23;86.60;;;13.40;99.90;;;;;;4972802;28;20858;-75
2022/05/27 04:57:23;;;;;;;38.60;36.63;;;13.50;99.90;;;;;;4971519;28;20227;-77
2022/05/27 04:59:49;;;;;;;34.23;32.23;;;13.70;99.90;;;;;;4972474;28;20793;-79
2022/05/27 05:02:18;;;;;;;31.63;30.00;;;13.70;99.90;;;;;;4956283;28;20221;-77
2022/05/27 05:04:44;;;;;;;34.97;33.10;;;13.80;99.90;;;;;;4955838;28;20218;-77
2022/05/27 05:07:10;;;;;;;34.90;32.80;;;13.90;99.90;;;;;;4971176;28;20197;-77
2022/05/27 05:09:37;;;;;;;18.23;17.23;;;14.00;99.90;;;;;;4969583;28;20192;-76
2022/05/27 05:12:05;;;;;;;62.87;16.13;;;14.20;99.90;;;;;;4969475;28;20263;-78
2022/05/27 05:14:31;;;;;;;9.43;8.57;;;14.30;99.90;;;;;;4955442;28;20710;-77
2022/05/27 05:16:56;;;;;;;9.50;8.90;;;14.40;99.90;;;;;;4972522;28;20317;-77
2022/05/27 05:19:22;;;;;;;12.10;11.30;;;14.40;99.90;;;;;;4956379;28;20184;-76
2022/05/27 05:21:48;;;;;;;21.57;20.17;;;14.50;99.90;;;;;;4972629;28;20232;-77
2022/05/27 05:24:14;;;;;;;29.60;28.03;;;14.60;99.90;;;;;;4955459;28;20219;-77
2022/05/27 05:26:39;;;;;;;23.27;22.07;;;14.70;99.90;;;;;;4972679;28;20204;-77
2022/05/27 05:29:08;;;;;;;14.80;13.50;;;14.80;99.90;;;;;;4955171;28;20641;-77
2022/05/27 05:31:34;;;;;;;9.33;8.83;;;14.90;99.90;;;;;;4972663;28;20259;-77
2022/05/27 05:34:01;;;;;;;10.93;10.30;;;15.00;99.90;;;;;;4973381;28;20629;-77
2022/05/27 05:36:28;;;;;;;10.30;9.60;;;15.10;99.90;;;;;;4973565;28;20192;-77
2022/05/27 05:38:55;;;;;;;8.27;7.67;;;15.20;99.90;;;;;;4956270;28;20186;-77
2022/05/27 05:41:30;;;;;;;8.60;7.80;;;15.30;99.90;;;;;;4956541;28;20288;-78
2022/05/27 05:43:56;;;;;;;7.40;7.00;;;15.40;99.90;;;;;;4973551;28;20719;-77
2022/05/27 05:46:24;;;;;;;5.57;5.07;;;15.50;99.90;;;;;;4958141;28;20184;-78
2022/05/27 05:48:50;;;;;;;6.10;4.77;;;15.60;99.90;;;;;;4956616;28;20185;-78
2022/05/27 05:51:17;;;;;;;6.77;5.70;;;15.60;99.90;;;;;;4961748;28;20197;-77
2022/05/27 05:53:43;;;;;;;8.23;7.83;;;15.70;99.90;;;;;;4982756;28;20185;-78
2022/05/27 05:56:08;;;;;;;8.97;8.27;;;15.70;99.90;;;;;;4959942;28;20217;-77
2022/05/27 05:58:34;;;;;;;5.93;5.53;;;15.80;99.90;;;;;;4979061;28;20560;-78
2022/05/27 06:01:00;;;;;;;6.67;6.07;;;15.90;99.90;;;;;;4972477;28;20724;-78
2022/05/27 06:03:26;;;;;;;13.17;12.10;;;15.90;99.90;;;;;;4991633;28;20181;-77
2022/05/27 06:05:53;;;;;;;31.00;29.50;;;16.00;99.90;;;;;;4971445;28;20180;-77
2022/05/27 06:08:18;;;;;;;53.73;51.00;;;16.00;99.90;;;;;;4989077;28;20207;-77
2022/05/27 06:10:48;;;;;;;72.73;68.97;;;16.10;99.90;;;;;;4978672;28;20693;-77
2022/05/27 06:13:14;;;;;;;75.23;71.40;;;16.10;99.90;;;;;;4977286;28;20279;-77
2022/05/27 06:15:41;;;;;;;95.17;90.40;;;16.20;99.90;;;;;;4960009;28;20216;-77
2022/05/27 06:18:07;;;;;;;100.13;95.03;;;16.40;99.90;;;;;;4976693;28;20212;-77
2022/05/27 06:20:35;;;;;;;57.57;54.53;;;16.50;99.90;;;;;;4959491;28;20197;-77
2022/05/27 06:23:04;;;;;;;58.20;55.13;;;16.50;99.90;;;;;;4958865;28;20211;-77
2022/05/27 06:25:29;;;;;;;29.03;27.13;;;16.70;99.90;;;;;;4959200;28;20657;-77
2022/05/27 06:34:23;;;;;;;21.60;20.57;;;16.70;99.90;;;;;;4976611;28;20185;-77
2022/05/27 06:36:13;;;;;;;5.87;5.43;;;16.70;99.90;;;;;;4991280;28;20194;-77
2022/05/27 06:38:39;;;;;;;5.80;5.40;;;16.60;99.90;;;;;;4984346;28;20248;-77
2022/05/27 06:41:05;;;;;;;6.60;6.20;;;16.60;99.90;;;;;;4989119;28;20208;-78
2022/05/27 06:43:32;;;;;;;9.27;8.47;;;16.60;99.90;;;;;;4974993;28;20165;-77
2022/05/27 06:46:00;;;;;;;6.37;5.80;;;16.60;99.90;;;;;;4997823;28;20189;-77
2022/05/27 06:48:26;;;;;;;7.07;6.27;;;16.60;99.90;;;;;;4961698;28;20259;-77
2022/05/27 06:50:52;;;;;;;10.80;10.20;;;16.60;99.90;;;;;;4961438;28;20247;-77
2022/05/27 06:53:18;;;;;;;9.73;8.67;;;16.60;99.90;;;;;;4961731;28;20185;-77
2022/05/27 06:55:49;;;;;;;11.10;10.50;;;16.50;99.90;;;;;;4977238;28;20265;-77
2022/05/27 06:58:15;;;;;;;12.07;11.33;;;16.50;99.90;;;;;;4978095;28;20185;-77
2022/05/27 07:00:42;;;;;;;12.87;12.07;;;16.50;99.90;;;;;;4981855;28;20213;-77
2022/05/27 07:03:08;;;;;;;17.57;16.47;;;16.40;99.90;;;;;;4959966;28;20611;-76
2022/05/27 07:05:35;;;;;;;17.90;16.67;;;16.30;99.90;;;;;;4973396;28;20657;-77
2022/05/27 07:08:05;;;;;;;23.37;21.80;;;16.30;99.90;;;;;;4957432;28;20185;-78
2022/05/27 07:10:31;;;;;;;54.07;50.77;;;16.20;99.90;;;;;;4959415;28;20199;-78
2022/05/27 07:12:59;;;;;;;58.10;54.80;;;16.10;99.90;;;;;;4963099;28;20181;-77
2022/05/27 07:15:29;;;;;;;66.60;63.10;;;16.10;99.90;;;;;;4958757;28;20707;-78
2022/05/27 07:17:56;;;;;;;70.83;66.83;;;16.10;99.90;;;;;;4959143;28;20552;-78
2022/05/27 07:20:23;;;;;;;69.20;65.47;;;16.10;99.90;;;;;;4979481;28;20177;-78
2022/05/27 07:22:49;;;;;;;63.67;60.27;;;16.10;99.90;;;;;;4973464;28;20190;-78
2022/05/27 07:25:16;;;;;;;66.30;62.60;;;16.10;99.90;;;;;;4966854;28;20187;-78
2022/05/27 07:27:42;;;;;;;69.23;65.67;;;16.10;99.90;;;;;;4990045;28;20728;-78
2022/05/27 07:30:09;;;;;;;66.80;63.20;;;16.20;99.90;;;;;;4988364;28;20711;-78
2022/05/27 07:32:36;;;;;;;76.77;72.73;;;16.20;99.90;;;;;;4985057;28;20205;-79
2022/05/27 07:35:06;;;;;;;68.13;64.57;;;16.20;99.90;;;;;;4961133;28;20205;-77
2022/05/27 07:37:32;;;;;;;58.90;55.70;;;16.20;99.90;;;;;;4960932;28;20190;-79
2022/05/27 07:39:57;;;;;;;53.10;50.00;;;16.30;99.90;;;;;;4960656;28;20181;-76
2022/05/27 07:42:23;;;;;;;43.77;41.27;;;16.40;99.90;;;;;;4975309;28;20235;-77
2022/05/27 07:44:50;;;;;;;41.17;39.07;;;16.40;99.90;;;;;;4957239;28;20268;-77
2022/05/27 07:47:17;;;;;;;27.83;26.33;;;16.50;99.90;;;;;;4959068;28;20316;-78
2022/05/27 07:49:43;;;;;;;16.90;15.90;;;16.50;99.90;;;;;;4976040;28;20777;-79
2022/05/27 07:52:10;;;;;;;10.60;9.90;;;16.60;99.90;;;;;;4958488;28;20735;-77
2022/05/27 07:54:36;;;;;;;10.43;9.57;;;16.60;99.90;;;;;;4958732;28;20216;-76
2022/05/27 07:57:02;;;;;;;10.50;9.73;;;16.60;99.90;;;;;;4974871;28;20189;-78
2022/05/27 07:59:29;;;;;;;7.83;7.33;;;16.60;99.90;;;;;;4975415;28;20200;-78
2022/05/27 08:01:55;;;;;;;12.33;11.23;;;16.50;99.90;;;;;;4977031;28;20583;-79
2022/05/27 08:04:20;;;;;;;8.67;8.10;;;16.50;99.90;;;;;;4959306;28;20192;-78
2022/05/27 08:06:46;;;;;;;9.37;8.80;;;16.50;99.90;;;;;;4962749;28;20206;-77
2022/05/27 08:09:14;;;;;;;7.37;6.97;;;16.50;99.90;;;;;;4975586;28;20191;-78
2022/05/27 08:11:40;;;;;;;7.77;7.23;;;16.60;99.90;;;;;;4958073;28;20624;-78
2022/05/27 08:14:09;;;;;;;6.43;5.83;;;16.60;99.90;;;;;;4974685;28;20300;-76
2022/05/27 08:16:35;;;;;;;5.97;5.67;;;16.60;99.90;;;;;;4956720;28;20212;-77
2022/05/27 08:19:01;;;;;;;5.43;5.10;;;16.60;99.90;;;;;;4974025;28;20188;-77
2022/05/27 08:21:27;;;;;;;5.77;5.47;;;16.50;99.90;;;;;;4957437;28;20305;-77
2022/05/27 08:23:53;;;;;;;6.67;5.70;;;16.70;99.90;;;;;;4957097;28;20235;-77
2022/05/27 08:26:19;;;;;;;5.63;5.07;;;16.80;99.90;;;;;;4974216;28;20185;-77
2022/05/27 08:28:45;;;;;;;5.23;4.73;;;17.20;99.90;;;;;;4974036;28;20653;-78
2022/05/27 08:31:11;;;;;;;6.07;5.47;;;17.40;99.90;;;;;;4974666;28;20201;-78
2022/05/27 08:39:10;;;;;;;4.83;4.53;;;17.70;99.90;;;;;;4980253;28;20197;-77
2022/05/27 08:41:57;;;;;;;4.60;4.27;;;17.80;99.90;;;;;;4975440;28;20208;-77
2022/05/27 08:44:54;;;;;;;5.30;4.90;;;17.90;99.90;;;;;;4973532;28;20192;-77
2022/05/27 08:47:26;;;;;;;4.90;4.50;;;18.20;99.90;;;;;;4954235;28;20178;-79
2022/05/27 08:50:07;;;;;;;6.87;4.27;;;18.20;99.90;;;;;;4941060;29;20650;-78
2022/05/27 08:52:46;;;;;;;12.03;6.60;;;18.40;99.90;;;;;;4961892;29;20221;-78
2022/05/27 09:01:11;;;;;;;6.77;6.17;;;18.50;99.90;;;;;;4973030;28;20217;-75
2022/05/27 09:03:46;;;;;;;9.87;8.90;;;18.50;99.90;;;;;;4955772;28;20208;-77
2022/05/27 09:06:13;;;;;;;10.63;9.83;;;18.50;99.90;;;;;;4973226;28;20242;-76
2022/05/27 09:08:39;;;;;;;10.17;9.40;;;18.70;99.90;;;;;;4956021;28;20669;-79
2022/05/27 09:11:49;;;;;;;19.87;18.33;;;18.90;99.90;;;;;;4956711;28;20251;-78
2022/05/27 09:14:21;;;;;;;11.43;10.53;;;18.80;99.90;;;;;;4955587;28;20227;-77
2022/05/27 09:16:58;;;;;;;9.80;9.10;;;18.50;99.90;;;;;;4991624;23;20232;-75
2022/05/27 09:19:39;;;;;;;10.37;9.70;;;18.20;99.90;;;;;;4991784;28;20186;-76
2022/05/27 09:22:14;;;;;;;11.57;10.80;;;18.00;99.90;;;;;;4974762;28;20180;-76
2022/05/27 09:25:04;;;;;;;12.23;11.53;;;18.00;99.90;;;;;;4991818;28;20648;-75
2022/05/27 09:27:46;;;;;;;14.30;13.30;;;18.30;99.90;;;;;;4974112;28;20620;-76
2022/05/27 09:30:15;;;;;;;12.30;11.47;;;18.60;99.90;;;;;;4974270;28;20191;-76
2022/05/27 09:32:51;;;;;;;15.47;14.33;;;19.10;99.90;;;;;;4973881;28;20191;-77
2022/05/27 09:35:21;;;;;;;20.93;19.73;;;19.50;99.90;;;;;;4991044;28;20215;-76
2022/05/27 09:37:50;;;;;;;12.60;11.70;;;20.10;99.90;;;;;;4991425;28;20187;-76
2022/05/27 09:40:39;;;;;;;11.60;11.00;;;20.70;99.90;;;;;;4974630;28;20184;-76
2022/05/27 09:43:29;;;;;;;26.92;25.60;;;21.90;99.90;;;;;;4991140;28;20562;-76
2022/05/27 09:46:01;;;;;;;34.63;32.67;;;22.60;99.90;;;;;;4981579;28;20201;-77
2022/05/27 09:48:27;;;;;;;34.17;32.47;;;22.70;99.90;;;;;;4971879;28;20177;-75
2022/05/27 09:50:57;;;;;;;45.15;42.90;;;22.50;99.90;;;;;;4972318;28;20184;-75
2022/05/27 09:53:28;;;;;;;45.20;42.97;;;22.40;99.90;;;;;;4972290;28;20185;-75
2022/05/27 09:56:05;;;;;;;52.35;49.63;;;22.80;99.90;;;;;;4981540;28;20212;-74
2022/05/27 09:58:40;;;;;;;37.13;35.00;;;22.50;99.90;;;;;;4974404;28;20210;-75
2022/05/27 10:01:25;;;;;;;22.30;21.05;;;22.40;99.90;;;;;;4974432;28;20187;-75
2022/05/27 10:04:03;;;;;;;47.25;44.55;;;21.50;99.90;;;;;;4974515;28;20271;-75
2022/05/27 10:06:32;;;;;;;43.27;40.90;;;20.80;99.90;;;;;;4960128;28;20196;-74
2022/05/27 10:09:05;;;;;;;24.77;23.27;;;20.50;99.90;;;;;;4972281;28;20188;-76
2022/05/27 10:11:47;;;;;;;26.08;24.67;;;20.60;99.90;;;;;;4972540;28;20255;-77
2022/05/27 10:14:19;;;;;;;31.73;29.83;;;20.70;99.90;;;;;;4972416;28;20205;-76
2022/05/27 10:17:27;;;;;;;27.33;25.88;;;20.70;99.90;;;;;;4970628;28;20208;-76
2022/05/27 10:20:17;;;;;;;22.53;21.10;;;20.40;99.90;;;;;;4954325;28;20184;-77
2022/05/27 10:23:00;;;;;;;22.27;21.27;;;20.50;99.90;;;;;;4995022;28;20181;-77
2022/05/27 10:25:36;;;;;;;41.17;39.13;;;20.80;99.90;;;;;;5002179;28;20593;-76
2022/05/27 10:28:04;;;;;;;25.35;24.00;;;20.70;99.90;;;;;;4995829;28;20215;-77
2022/05/27 10:30:39;;;;;;;30.47;28.87;;;20.40;99.90;;;;;;4974523;28;20188;-76
2022/05/27 10:33:18;;;;;;;26.07;24.47;;;20.50;99.90;;;;;;4974883;28;20227;-76
2022/05/27 10:35:46;;;;;;;43.63;41.47;;;20.80;99.90;;;;;;4984909;28;20231;-76
2022/05/27 10:38:41;;;;;;;48.60;46.17;;;21.20;99.90;;;;;;4973135;28;20181;-77
2022/05/27 10:41:30;;;;;;;23.25;21.85;;;21.60;99.90;;;;;;4975148;28;20181;-77
2022/05/27 10:44:18;;;;;;;6.47;6.07;;;22.00;99.90;;;;;;4974120;28;20185;-76
2022/05/27 10:46:55;;;;;;;4.88;4.45;;;22.20;99.90;;;;;;4973046;28;20211;-77
2022/05/27 10:49:26;;;;;;;5.25;4.95;;;22.30;99.90;;;;;;4969441;28;20184;-77
2022/05/27 10:52:37;;;;;;;7.47;7.07;;;22.30;99.90;;;;;;4975627;28;20195;-76
2022/05/27 10:55:21;;;;;;;7.28;6.75;;;22.60;99.90;;;;;;4989772;28;20303;-76
2022/05/27 11:04:14;;;;;;;5.72;5.15;;;21.70;99.90;;;;;;4975355;28;20553;-75
2022/05/27 11:07:06;;;;;;;6.00;5.60;;;21.70;99.90;;;;;;4919619;29;20829;-76
2022/05/27 11:09:36;;;;;;;5.85;5.55;;;21.70;99.90;;;;;;4955805;28;20186;-76
2022/05/27 11:12:16;;;;;;;7.13;6.80;;;21.90;99.90;;;;;;4955450;28;20264;-76
2022/05/27 11:15:12;;;;;;;7.65;7.05;;;22.20;99.90;;;;;;4938648;29;20217;-75
2022/05/27 11:17:53;;;;;;;7.30;6.97;;;22.20;99.90;;;;;;4975838;28;20188;-75
2022/05/27 11:20:57;;;;;;;8.45;8.00;;;22.30;99.90;;;;;;4994433;28;20184;-75
2022/05/27 11:23:35;;;;;;;7.80;7.30;;;22.00;99.90;;;;;;4960830;28;20188;-75
2022/05/27 11:27:09;;;;;;;7.03;6.47;;;22.00;99.90;;;;;;4985581;28;20208;-75
2022/05/27 11:29:47;;;;;;;8.07;7.57;;;22.00;99.90;;;;;;4898099;29;20655;-76
2022/05/27 11:32:31;;;;;;;9.18;8.32;;;21.70;99.90;;;;;;4967440;28;20279;-76
2022/05/27 11:35:20;;;;;;;13.73;12.40;;;21.90;99.90;;;;;;4974471;28;20764;-76
2022/05/27 11:37:51;;;;;;;17.02;15.52;;;22.10;99.90;;;;;;4976425;28;20184;-76
2022/05/27 11:40:47;;;;;;;21.48;19.63;;;22.40;99.90;;;;;;4976903;28;20192;-76
2022/05/27 11:43:45;;;;;;;17.52;15.80;;;22.20;99.80;;;;;;4941238;28;20200;-76
2022/05/27 11:46:55;;;;;;;12.77;11.90;;;21.90;99.90;;;;;;4984559;28;20209;-77
2022/05/27 11:49:24;;;;;;;10.20;9.50;;;21.90;99.90;;;;;;4976258;28;20184;-76
2022/05/27 11:51:58;;;;;;;11.05;10.35;;;22.10;99.90;;;;;;4993706;28;20177;-77
2022/05/27 11:54:54;;;;;;;10.35;9.70;;;22.10;99.90;;;;;;4986409;28;20212;-77
2022/05/27 11:57:49;;;;;;;10.45;9.75;;;22.20;99.90;;;;;;4951668;28;20181;-77
2022/05/27 12:00:18;;;;;;;9.18;8.68;;;22.20;99.80;;;;;;4972599;28;20180;-77
2022/05/27 12:03:00;;;;;;;10.98;10.38;;;22.50;99.90;;;;;;4976370;28;20181;-77
2022/05/27 12:05:31;;;;;;;7.72;7.22;;;22.80;99.90;;;;;;4975416;28;20196;-75
2022/05/27 12:08:00;;;;;;;5.70;5.40;;;23.20;98.80;;;;;;4979413;28;20227;-77
2022/05/27 12:10:40;;;;;;;5.78;5.47;;;23.50;99.00;;;;;;4988992;28;20276;-76
2022/05/27 12:13:26;;;;;;;8.15;7.35;;;24.00;98.00;;;;;;4978790;28;20215;-77
2022/05/27 12:15:57;;;;;;;6.53;6.03;;;24.70;96.10;;;;;;4973936;28;20308;-78
2022/05/27 12:18:28;;;;;;;10.18;9.38;;;25.30;94.60;;;;;;4956312;28;20209;-77
2022/05/27 12:20:55;;;;;;;18.63;17.52;;;25.70;93.70;;;;;;4974850;28;20313;-77
2022/05/27 12:23:25;;;;;;;16.98;15.73;;;25.00;92.40;;;;;;4973863;28;20188;-75
2022/05/27 12:25:55;;;;;;;14.18;12.98;;;24.30;93.30;;;;;;4978989;28;20695;-77
2022/05/27 12:28:31;;;;;;;7.78;7.07;;;23.80;95.00;;;;;;4985305;28;20213;-77
2022/05/27 12:31:00;;;;;;;8.45;7.75;;;23.30;96.20;;;;;;4972674;28;20542;-76
2022/05/27 12:33:28;;;;;;;7.22;6.72;;;22.90;97.40;;;;;;4971883;28;20189;-77
2022/05/27 12:36:06;;;;;;;6.97;6.47;;;22.70;97.50;;;;;;4979801;28;20294;-76
2022/05/27 12:38:42;;;;;;;11.90;10.73;;;22.30;98.80;;;;;;4993291;28;20184;-77
2022/05/27 12:41:09;;;;;;;15.52;14.00;;;22.00;98.10;;;;;;4993803;28;20191;-78
2022/05/27 12:43:37;;;;;;;10.73;9.98;;;21.70;98.20;;;;;;4978227;28;20180;-77
2022/05/27 12:46:03;;;;;;;15.50;14.50;;;21.40;98.90;;;;;;4970841;28;20210;-77
2022/05/27 12:48:44;;;;;;;10.60;9.95;;;21.00;99.70;;;;;;4970539;28;20191;-76
2022/05/27 12:51:16;;;;;;;8.45;7.90;;;20.70;99.90;;;;;;4980520;28;20195;-77
2022/05/27 12:53:48;;;;;;;8.48;7.82;;;20.60;99.90;;;;;;4977994;28;20202;-75
2022/05/27 13:02:18;;;;;;;6.35;5.95;;;20.50;99.90;;;;;;4974903;28;20219;-77
2022/05/27 13:04:54;;;;;;;8.70;8.23;;;20.40;99.90;;;;;;4974030;28;20275;-76
2022/05/27 13:07:37;;;;;;;8.98;8.38;;;20.40;99.90;;;;;;4989278;28;20187;-76
2022/05/27 13:10:18;;;;;;;9.30;8.87;;;20.50;99.90;;;;;;4992800;28;20279;-77
2022/05/27 13:12:44;;;;;;;10.90;10.13;;;20.60;99.90;;;;;;4992738;28;20267;-77
2022/05/27 13:15:33;;;;;;;116.38;33.85;;;20.70;99.90;;;;;;4975464;28;20771;-77
2022/05/27 13:18:13;;;;;;;15.80;14.70;;;20.90;99.90;;;;;;4937874;28;20269;-77
2022/05/27 13:21:09;;;;;;;17.73;16.42;;;21.00;99.90;;;;;;4938035;29;20294;-76
2022/05/27 13:23:53;;;;;;;16.00;14.70;;;20.90;99.90;;;;;;4904259;29;20200;-77
2022/05/27 13:26:42;;;;;;;18.38;16.92;;;20.90;99.90;;;;;;4971225;28;20224;-75
2022/05/27 13:29:25;;;;;;;19.27;17.90;;;21.00;99.90;;;;;;5005121;28;20220;-76
2022/05/27 13:31:55;;;;;;;17.77;16.27;;;21.10;99.90;;;;;;4986299;28;20192;-77
2022/05/27 13:34:53;;;;;;;13.07;11.97;;;21.10;99.90;;;;;;4999717;28;20299;-75
2022/05/27 13:37:29;;;;;;;14.50;13.63;;;21.10;99.90;;;;;;4946226;28;20204;-77
2022/05/27 13:40:03;;;;;;;15.38;14.48;;;21.00;99.90;;;;;;4963785;28;20235;-76
2022/05/27 13:42:35;;;;;;;9.20;8.43;;;21.10;99.90;;;;;;4956689;28;20255;-77
2022/05/27 13:45:30;;;;;;;12.00;11.35;;;21.10;99.90;;;;;;4974483;28;20193;-77
2022/05/27 13:48:06;;;;;;;11.82;11.13;;;20.90;99.90;;;;;;4987067;28;20197;-76
2022/05/27 13:50:38;;;;;;;11.60;10.73;;;20.90;99.90;;;;;;4973414;28;20235;-76
2022/05/27 13:53:20;;;;;;;15.47;14.67;;;20.80;99.90;;;;;;4973860;28;20197;-76
2022/05/27 13:55:48;;;;;;;17.38;15.90;;;20.80;99.90;;;;;;4975950;28;20608;-77
2022/05/27 13:58:15;;;;;;;17.58;16.50;;;21.00;99.90;;;;;;4966659;28;20223;-77
2022/05/27 14:00:44;;;;;;;15.57;14.87;;;21.10;99.90;;;;;;4972860;28;20185;-77
2022/05/27 14:03:23;;;;;;;16.63;15.73;;;21.30;99.90;;;;;;4972622;28;20185;-77
2022/05/27 14:05:58;;;;;;;10.68;8.95;;;21.30;99.90;;;;;;4957121;28;20200;-77
2022/05/27 14:08:41;;;;;;;10.30;9.65;;;21.00;99.90;;;;;;4972596;28;20180;-78
2022/05/27 14:11:35;;;;;;;13.18;12.50;;;20.90;99.90;;;;;;4955597;28;20625;-76
2022/05/27 14:14:05;;;;;;;16.27;15.27;;;20.80;99.90;;;;;;4971167;28;20284;-77
2022/05/27 14:16:33;;;;;;;15.07;14.27;;;20.90;99.90;;;;;;4979100;28;20221;-77
2022/05/27 14:19:26;;;;;;;18.10;17.10;;;20.90;99.90;;;;;;4972676;28;20181;-77
2022/05/27 14:24:49;;;;;;;19.23;18.33;;;20.80;99.90;;;;;;4982573;28;20197;-77
2022/05/27 14:27:20;;;;;;;20.00;18.80;;;20.80;99.90;;;;;;4977681;28;20216;-77
2022/05/27 14:29:46;;;;;;;21.73;20.00;;;20.70;99.90;;;;;;4981713;28;20185;-77
2022/05/27 14:32:18;;;;;;;20.52;19.13;;;20.80;99.90;;;;;;4967689;28;20188;-76
2022/05/27 14:34:47;;;;;;;23.90;22.27;;;21.00;99.90;;;;;;4959822;28;20201;-77
2022/05/27 14:37:21;;;;;;;23.27;21.77;;;21.10;99.90;;;;;;4985290;28;20608;-76
2022/05/27 14:39:50;;;;;;;23.80;22.45;;;21.30;99.90;;;;;;4977590;28;20181;-77
2022/05/27 14:42:19;;;;;;;18.02;17.10;;;21.40;99.90;;;;;;4976306;28;20185;-77
2022/05/27 14:44:47;;;;;;;16.58;15.68;;;21.50;99.90;;;;;;4978020;28;20188;-76
2022/05/27 14:47:29;;;;;;;16.38;15.57;;;21.50;99.90;;;;;;4992180;28;20196;-77
2022/05/27 14:50:12;;;;;;;15.05;14.05;;;21.10;99.90;;;;;;4996907;28;20192;-77
2022/05/27 14:52:50;;;;;;;14.68;13.80;;;20.80;99.90;;;;;;4997439;28;20263;-77
2022/05/27 14:55:23;;;;;;;18.20;17.40;;;20.80;99.90;;;;;;4979843;28;20223;-77
2022/05/27 14:57:53;;;;;;;16.77;15.75;;;20.80;99.90;;;;;;4960228;28;20181;-77
2022/05/27 15:00:22;;;;;;;16.08;15.32;;;20.80;99.90;;;;;;4961170;28;20192;-76
2022/05/27 15:02:57;;;;;;;20.15;19.15;;;20.90;99.90;;;;;;4976411;28;20184;-77
2022/05/27 15:05:23;;;;;;;21.98;20.83;;;20.90;99.90;;;;;;4977348;28;20212;-76
2022/05/27 15:07:52;;;;;;;15.32;14.52;;;20.80;99.90;;;;;;4990393;28;20184;-77
2022/05/27 15:10:38;;;;;;;11.70;10.90;;;20.70;99.90;;;;;;4989988;28;20192;-76
2022/05/27 15:13:23;;;;;;;6.43;6.13;;;20.30;99.90;;;;;;4967968;28;20185;-77
2022/05/27 15:15:49;;;;;;;5.43;5.03;;;20.20;99.90;;;;;;4996930;22;20925;-75
2022/05/27 15:18:24;;;;;;;6.10;5.80;;;20.20;99.90;;;;;;5008499;28;20290;-75
2022/05/27 15:21:01;;;;;;;6.70;6.47;;;20.10;99.90;;;;;;4995055;28;20187;-74
2022/05/27 15:23:38;;;;;;;6.70;6.20;;;20.30;99.90;;;;;;5007918;28;20202;-73
2022/05/27 15:34:36;;;;;;;17.23;16.25;;;21.20;99.90;;;;;;4994226;28;20212;-75
2022/05/27 15:37:03;;;;;;;13.10;12.30;;;20.80;99.90;;;;;;4980011;28;20196;-75
2022/05/27 15:39:29;;;;;;;11.18;10.57;;;20.80;99.90;;;;;;4993224;28;20176;-75
2022/05/27 15:41:56;;;;;;;14.00;13.23;;;20.90;99.90;;;;;;4975754;28;20224;-75
2022/05/27 15:44:22;;;;;;;19.80;18.92;;;21.20;99.90;;;;;;4975995;28;20180;-76
2022/05/27 15:46:47;;;;;;;18.63;17.65;;;21.30;99.90;;;;;;4988025;28;20227;-76
2022/05/27 15:49:13;;;;;;;15.50;14.80;;;21.10;99.90;;;;;;5011627;28;20671;-76
2022/05/27 15:51:39;;;;;;;17.55;16.65;;;21.00;99.90;;;;;;4975586;28;20641;-76
2022/05/27 15:54:08;;;;;;;20.10;19.10;;;21.30;99.90;;;;;;4993323;28;20172;-76
2022/05/27 15:56:34;;;;;;;13.60;12.93;;;22.10;99.90;;;;;;5003645;28;20203;-74
2022/05/27 15:59:01;;;;;;;7.53;7.22;;;22.40;99.90;;;;;;5012968;28;20233;-76
2022/05/27 16:01:27;;;;;;;8.90;8.50;;;22.90;99.90;;;;;;4995783;28;20184;-75
2022/05/27 16:03:53;;;;;;;10.85;10.38;;;23.30;99.90;;;;;;4996010;28;20176;-75
2022/05/27 16:06:21;;;;;;;9.35;8.85;;;23.80;99.90;;;;;;5013206;28;20286;-75
2022/05/27 16:08:47;;;;;;;4.80;4.60;;;24.40;98.30;;;;;;5013490;28;20298;-75
2022/05/27 16:11:13;;;;;;;5.30;5.03;;;23.90;98.00;;;;;;5013628;28;20191;-76
2022/05/27 16:13:39;;;;;;;5.35;5.15;;;23.80;97.90;;;;;;5013005;28;20206;-75
2022/05/27 16:18:50;;;;;;;5.78;5.57;;;23.40;97.50;;;;;;5012837;28;20184;-75
2022/05/27 16:21:16;;;;;;;7.47;7.18;;;23.10;98.30;;;;;;5012969;28;20661;-75
2022/05/27 16:23:46;;;;;;;7.50;7.20;;;23.40;98.00;;;;;;4992594;28;20535;-74
2022/05/27 16:26:13;;;;;;;10.65;10.25;;;22.90;98.40;;;;;;4970990;28;20204;-75
2022/05/27 16:28:39;;;;;;;11.55;10.70;;;22.80;99.00;;;;;;4959719;28;20239;-75
2022/05/27 16:31:05;;;;;;;14.07;13.10;;;22.80;98.40;;;;;;4992499;28;20187;-76
2022/05/27 16:33:31;;;;;;;17.23;16.15;;;22.30;99.20;;;;;;4993110;28;20180;-79
2022/05/27 16:35:59;;;;;;;13.45;12.75;;;21.80;99.90;;;;;;4996623;28;20207;-77
2022/05/27 16:38:25;;;;;;;9.05;8.55;;;21.30;99.90;;;;;;5014891;28;20608;-78
2022/05/27 16:40:54;;;;;;;5.97;5.63;;;21.10;99.90;;;;;;5000650;28;20179;-80
2022/05/27 16:43:20;;;;;;;7.95;7.55;;;20.80;99.90;;;;;;4999410;28;20223;-79
2022/05/27 16:45:47;;;;;;;12.57;11.98;;;20.50;99.90;;;;;;5016755;28;20276;-78
2022/05/27 16:48:13;;;;;;;10.77;10.23;;;20.20;99.90;;;;;;5003174;28;20279;-77
2022/05/27 16:50:41;;;;;;;11.00;10.50;;;20.20;99.90;;;;;;5007848;28;20180;-78